Time,TemperatureF,DewpointF,PressureIn,WindDirection,WindDirectionDegrees,WindSpeedMPH,WindSpeedGustMPH,Humidity,HourlyPrecipIn,Conditions,Clouds,dailyrainin,SoftwareType,DateUTC
2013-07-24 00:00:00,69.2,68.6,29.81,NW,318,0.0,2.0,98,0.00,,---,0.00,VWS V14.01,2013-07-24 05:00:00,
2013-07-24 00:02:00,69.1,68.5,29.81,NW,318,0.0,0.0,98,0.00,,---,0.00,VWS V14.01,2013-07-24 05:02:00,
2013-07-24 00:03:00,69.0,68.4,29.81,NW,318,0.0,0.0,98,0.00,,---,0.00,VWS V14.01,2013-07-24 05:03:00,
2013-07-24 00:04:00,69.0,68.1,29.81,NW,318,0.0,0.0,97,0.00,,---,0.00,VWS V14.01,2013-07-24 05:04:00,
2013-07-24 00:08:00,69.0,68.1,29.81,NW,318,0.0,0.0,97,0.00,,---,0.00,VWS V14.01,2013-07-24 05:08:00,
2013-07-24 00:09:00,68.9,68.3,29.81,NW,318,0.0,0.0,98,0.00,,---,0.00,VWS V14.01,2013-07-24 05:09:00,
2013-07-24 00:10:00,68.9,68.3,29.82,NW,318,0.0,0.0,98,0.00,,---,0.00,VWS V14.01,2013-07-24 05:10:00,
2013-07-24 00:13:00,69.0,68.4,29.82,NW,318,0.0,0.0,98,0.00,,---,0.00,VWS V14.01,2013-07-24 05:13:00,
2013-07-24 00:14:00,69.0,68.4,29.82,NW,318,0.0,0.0,98,0.00,,---,0.00,VWS V14.01,2013-07-24 05:14:00,
2013-07-24 00:15:00,69.0,68.4,29.82,NW,318,0.0,0.0,98,0.00,,---,0.00,VWS V14.01,2013-07-24 05:15:00,
2013-07-24 00:18:00,69.0,68.4,29.82,NW,318,0.0,0.0,98,0.00,,---,0.00,VWS V14.01,2013-07-24 05:18:00,
2013-07-24 00:19:00,68.9,68.3,29.82,NW,318,0.0,0.0,98,0.00,,---,0.00,VWS V14.01,2013-07-24 05:19:00,
2013-07-24 00:20:00,68.9,68.3,29.82,NW,318,0.0,0.0,98,0.00,,---,0.00,VWS V14.01,2013-07-24 05:20:00,
2013-07-24 00:23:00,68.7,68.1,29.82,NW,318,0.0,0.0,98,0.00,,---,0.00,VWS V14.01,2013-07-24 05:23:00,
2013-07-24 00:24:00,68.7,68.1,29.82,NW,318,0.0,0.0,98,0.00,,---,0.00,VWS V14.01,2013-07-24 05:24:00,
2013-07-24 00:25:00,68.8,68.2,29.82,NW,318,0.0,0.0,98,0.00,,---,0.00,VWS V14.01,2013-07-24 05:25:00,
2013-07-24 00:28:00,68.8,68.2,29.82,NW,318,0.0,0.0,98,0.00,,---,0.00,VWS V14.01,2013-07-24 05:28:00,
2013-07-24 00:29:00,68.9,68.3,29.82,NW,318,0.0,0.0,98,0.00,,---,0.00,VWS V14.01,2013-07-24 05:29:00,
2013-07-24 00:30:00,68.9,68.3,29.82,NW,318,0.0,0.0,98,0.00,,---,0.00,VWS V14.01,2013-07-24 05:30:00,
2013-07-24 00:34:00,68.9,68.3,29.82,NW,318,0.0,1.0,98,0.00,,---,0.00,VWS V14.01,2013-07-24 05:34:00,
2013-07-24 00:35:00,68.8,68.2,29.82,NW,318,0.0,1.0,98,0.00,,---,0.00,VWS V14.01,2013-07-24 05:35:00,
2013-07-24 00:36:00,68.8,68.2,29.82,NW,318,0.0,1.0,98,0.00,,---,0.00,VWS V14.01,2013-07-24 05:36:00,
2013-07-24 00:39:00,68.9,68.3,29.81,NW,318,0.0,3.0,98,0.00,,---,0.00,VWS V14.01,2013-07-24 05:39:00,
2013-07-24 00:40:00,68.9,68.3,29.81,NW,318,0.0,3.0,98,0.00,,---,0.00,VWS V14.01,2013-07-24 05:40:00,
2013-07-24 00:41:00,68.9,68.3,29.81,NW,318,0.0,3.0,98,0.00,,---,0.00,VWS V14.01,2013-07-24 05:41:00,
2013-07-24 00:44:00,69.0,68.4,29.81,NW,318,0.0,3.0,98,0.00,,---,0.00,VWS V14.01,2013-07-24 05:44:00,
2013-07-24 00:45:00,69.0,68.4,29.81,NW,318,0.0,3.0,98,0.00,,---,0.00,VWS V14.01,2013-07-24 05:45:00,
2013-07-24 00:46:00,69.0,68.4,29.81,NW,318,0.0,3.0,98,0.00,,---,0.00,VWS V14.01,2013-07-24 05:46:00,
2013-07-24 00:49:00,68.8,68.2,29.81,NW,318,0.0,3.0,98,0.00,,---,0.00,VWS V14.01,2013-07-24 05:49:00,
2013-07-24 00:50:00,68.8,68.2,29.81,NW,318,0.0,3.0,98,0.00,,---,0.00,VWS V14.01,2013-07-24 05:50:00,
2013-07-24 00:51:00,68.8,68.2,29.80,NW,318,0.0,3.0,98,0.00,,---,0.00,VWS V14.01,2013-07-24 05:51:00,
2013-07-24 00:54:00,68.7,68.1,29.81,NW,318,0.0,3.0,98,0.00,,---,0.00,VWS V14.01,2013-07-24 05:54:00,
2013-07-24 00:55:00,68.7,68.1,29.81,NW,318,0.0,3.0,98,0.00,,---,0.00,VWS V14.01,2013-07-24 05:55:00,
2013-07-24 00:56:00,68.6,68.0,29.80,NW,318,0.0,0.0,98,0.00,,---,0.00,VWS V14.01,2013-07-24 05:56:00,
2013-07-24 00:57:00,68.6,68.0,29.80,NW,318,0.0,0.0,98,0.00,,---,0.00,VWS V14.01,2013-07-24 05:57:00,
2013-07-24 00:59:00,68.7,68.1,29.80,NW,318,0.0,1.0,98,0.00,,---,0.00,VWS V14.01,2013-07-24 05:59:00,
2013-07-24 01:00:00,68.7,68.1,29.80,NW,318,0.0,1.0,98,0.00,,---,0.00,VWS V14.01,2013-07-24 06:00:00,
2013-07-24 01:01:00,68.7,68.1,29.80,NW,318,0.0,1.0,98,0.00,,---,0.00,VWS V14.01,2013-07-24 06:01:00,
2013-07-24 01:02:00,68.7,68.1,29.80,NW,318,0.0,1.0,98,0.00,,---,0.00,VWS V14.01,2013-07-24 06:02:00,
2013-07-24 01:04:00,68.6,68.0,29.80,NW,318,0.0,1.0,98,0.00,,---,0.00,VWS V14.01,2013-07-24 06:04:00,
2013-07-24 01:05:00,68.6,68.0,29.80,NW,318,0.0,1.0,98,0.00,,---,0.00,VWS V14.01,2013-07-24 06:05:00,
2013-07-24 01:06:00,68.6,68.0,29.80,NW,318,0.0,1.0,98,0.00,,---,0.00,VWS V14.01,2013-07-24 06:06:00,
2013-07-24 01:07:00,68.5,67.9,29.80,NW,318,0.0,1.0,98,0.00,,---,0.00,VWS V14.01,2013-07-24 06:07:00,
2013-07-24 01:10:00,68.5,67.9,29.80,NW,318,1.0,1.0,98,0.00,,---,0.00,VWS V14.01,2013-07-24 06:10:00,
2013-07-24 01:12:00,68.6,68.0,29.81,NE,35,7.0,7.0,98,0.00,,---,0.00,VWS V14.01,2013-07-24 06:12:00,
2013-07-24 01:15:00,68.7,68.1,29.82,ENE,68,6.0,11.0,98,0.00,,---,0.00,VWS V14.01,2013-07-24 06:15:00,
2013-07-24 01:17:00,68.8,68.2,29.82,NNE,21,7.0,11.0,98,0.00,,---,0.00,VWS V14.01,2013-07-24 06:17:00,
2013-07-24 01:20:00,68.8,68.2,29.82,NE,35,4.0,11.0,98,0.00,,---,0.00,VWS V14.01,2013-07-24 06:20:00,
2013-07-24 01:22:00,68.9,68.3,29.83,NE,37,4.0,11.0,98,0.00,,---,0.00,VWS V14.01,2013-07-24 06:22:00,
2013-07-24 01:23:00,68.8,68.2,29.83,NNE,33,5.0,11.0,98,0.00,,---,0.00,VWS V14.01,2013-07-24 06:23:00,
2013-07-24 01:25:00,68.8,68.2,29.83,NE,45,3.0,11.0,98,0.00,,---,0.00,VWS V14.01,2013-07-24 06:25:00,
2013-07-24 01:26:00,68.8,68.2,29.83,NE,40,4.0,11.0,98,0.00,,---,0.00,VWS V14.01,2013-07-24 06:26:00,
2013-07-24 01:27:00,68.8,68.2,29.83,NE,39,0.0,3.0,98,0.00,,---,0.00,VWS V14.01,2013-07-24 06:27:00,
2013-07-24 01:28:00,68.8,68.2,29.83,NE,39,1.0,3.0,98,0.00,,---,0.00,VWS V14.01,2013-07-24 06:28:00,
2013-07-24 01:30:00,68.8,68.2,29.83,NE,37,2.0,6.0,98,0.00,,---,0.00,VWS V14.01,2013-07-24 06:30:00,
2013-07-24 01:31:00,68.8,68.2,29.83,NE,37,1.0,6.0,98,0.00,,---,0.00,VWS V14.01,2013-07-24 06:31:00,
2013-07-24 01:33:00,68.8,68.2,29.82,NE,37,0.0,6.0,98,0.00,,---,0.00,VWS V14.01,2013-07-24 06:33:00,
2013-07-24 01:35:00,68.8,68.2,29.82,NE,37,0.0,6.0,98,0.00,,---,0.00,VWS V14.01,2013-07-24 06:35:00,
2013-07-24 01:36:00,68.8,68.2,29.82,NE,37,0.0,6.0,98,0.00,,---,0.00,VWS V14.01,2013-07-24 06:36:00,
2013-07-24 01:37:00,68.9,68.3,29.82,NE,37,0.0,6.0,98,0.00,,---,0.00,VWS V14.01,2013-07-24 06:37:00,
2013-07-24 01:38:00,68.9,68.3,29.82,NE,37,0.0,6.0,98,0.00,,---,0.00,VWS V14.01,2013-07-24 06:38:00,
2013-07-24 01:41:00,68.9,68.3,29.82,NE,37,0.0,6.0,98,0.00,,---,0.00,VWS V14.01,2013-07-24 06:41:00,
2013-07-24 01:42:00,68.9,68.3,29.82,NE,37,0.0,6.0,98,0.00,,---,0.00,VWS V14.01,2013-07-24 06:42:00,
2013-07-24 01:43:00,68.8,68.2,29.82,NE,37,1.0,6.0,98,0.00,,---,0.00,VWS V14.01,2013-07-24 06:43:00,
2013-07-24 01:44:00,68.8,68.2,29.82,NE,37,0.0,6.0,98,0.00,,---,0.00,VWS V14.01,2013-07-24 06:44:00,
2013-07-24 01:46:00,68.8,68.2,29.82,NE,37,0.0,6.0,98,0.00,,---,0.00,VWS V14.01,2013-07-24 06:46:00,
2013-07-24 01:47:00,68.8,68.2,29.82,NE,37,1.0,6.0,98,0.00,,---,0.00,VWS V14.01,2013-07-24 06:47:00,
2013-07-24 01:48:00,68.7,68.1,29.82,NE,37,2.0,6.0,98,0.00,,---,0.00,VWS V14.01,2013-07-24 06:48:00,
2013-07-24 01:49:00,68.6,68.0,29.82,NE,37,2.0,6.0,98,0.00,,---,0.00,VWS V14.01,2013-07-24 06:49:00,
2013-07-24 01:51:00,68.6,68.0,29.82,NE,37,1.0,6.0,98,0.00,,---,0.00,VWS V14.01,2013-07-24 06:51:00,
2013-07-24 01:52:00,68.5,67.9,29.82,NE,37,2.0,6.0,98,0.00,,---,0.00,VWS V14.01,2013-07-24 06:52:00,
2013-07-24 01:53:00,68.5,67.9,29.83,NE,37,1.0,6.0,98,0.00,,---,0.00,VWS V14.01,2013-07-24 06:53:00,
2013-07-24 01:54:00,68.5,67.9,29.83,NE,37,2.0,6.0,98,0.00,,---,0.00,VWS V14.01,2013-07-24 06:54:00,
2013-07-24 01:56:00,68.5,67.9,29.83,NE,37,2.0,6.0,98,0.00,,---,0.00,VWS V14.01,2013-07-24 06:56:00,
2013-07-24 01:57:00,68.5,67.9,29.82,NE,35,2.0,2.0,98,0.00,,---,0.00,VWS V14.01,2013-07-24 06:57:00,
2013-07-24 01:58:00,68.5,67.9,29.82,NE,35,2.0,2.0,98,0.00,,---,0.00,VWS V14.01,2013-07-24 06:58:00,
2013-07-24 01:59:00,68.5,67.9,29.82,NE,35,2.0,2.0,98,0.00,,---,0.00,VWS V14.01,2013-07-24 06:59:00,
2013-07-24 02:00:00,68.5,67.9,29.83,NE,35,2.0,2.0,98,0.00,,---,0.00,VWS V14.01,2013-07-24 07:00:00,
2013-07-24 02:01:00,68.4,67.8,29.83,NE,35,1.0,2.0,98,0.00,,---,0.00,VWS V14.01,2013-07-24 07:01:00,
2013-07-24 02:02:00,68.3,67.7,29.83,NE,36,0.0,2.0,98,0.00,,---,0.00,VWS V14.01,2013-07-24 07:02:00,
2013-07-24 02:03:00,68.3,67.7,29.83,NE,36,0.0,2.0,98,0.00,,---,0.00,VWS V14.01,2013-07-24 07:03:00,
2013-07-24 02:04:00,68.2,67.6,29.83,NE,36,0.0,2.0,98,0.00,,---,0.00,VWS V14.01,2013-07-24 07:04:00,
2013-07-24 02:05:00,68.2,67.6,29.83,NE,36,1.0,2.0,98,0.00,,---,0.00,VWS V14.01,2013-07-24 07:05:00,
2013-07-24 02:06:00,68.2,67.6,29.83,NE,36,1.0,2.0,98,0.00,,---,0.00,VWS V14.01,2013-07-24 07:06:00,
2013-07-24 02:07:00,68.3,67.7,29.83,NE,36,0.0,2.0,98,0.00,,---,0.00,VWS V14.01,2013-07-24 07:07:00,
2013-07-24 02:09:00,68.3,67.7,29.83,NE,36,0.0,2.0,98,0.00,,---,0.00,VWS V14.01,2013-07-24 07:09:00,
2013-07-24 02:10:00,68.4,67.8,29.83,NE,36,0.0,2.0,98,0.00,,---,0.00,VWS V14.01,2013-07-24 07:10:00,
2013-07-24 02:11:00,68.3,67.7,29.83,NE,36,0.0,2.0,98,0.00,,---,0.00,VWS V14.01,2013-07-24 07:11:00,
2013-07-24 02:12:00,68.4,67.8,29.83,NE,36,0.0,2.0,98,0.00,,---,0.00,VWS V14.01,2013-07-24 07:12:00,
2013-07-24 02:14:00,68.5,67.9,29.83,NE,36,0.0,2.0,98,0.00,,---,0.00,VWS V14.01,2013-07-24 07:14:00,
2013-07-24 02:15:00,68.5,67.9,29.83,NE,36,0.0,2.0,98,0.00,,---,0.00,VWS V14.01,2013-07-24 07:15:00,
2013-07-24 02:16:00,68.5,67.9,29.83,NE,36,0.0,2.0,98,0.00,,---,0.00,VWS V14.01,2013-07-24 07:16:00,
2013-07-24 02:18:00,68.4,67.8,29.83,NE,36,0.0,2.0,98,0.00,,---,0.00,VWS V14.01,2013-07-24 07:18:00,
2013-07-24 02:19:00,68.3,67.7,29.83,NE,36,0.0,2.0,98,0.00,,---,0.00,VWS V14.01,2013-07-24 07:19:00,
2013-07-24 02:21:00,68.2,67.6,29.83,NE,36,1.0,2.0,98,0.00,,---,0.00,VWS V14.01,2013-07-24 07:21:00,
2013-07-24 02:24:00,68.1,67.5,29.82,NE,36,2.0,2.0,98,0.00,,---,0.00,VWS V14.01,2013-07-24 07:24:00,
2013-07-24 02:25:00,68.1,67.5,29.82,NE,36,2.0,3.0,98,0.00,,---,0.00,VWS V14.01,2013-07-24 07:25:00,
2013-07-24 02:26:00,68.1,67.5,29.82,NE,56,2.0,3.0,98,0.00,,---,0.00,VWS V14.01,2013-07-24 07:26:00,
2013-07-24 02:27:00,68.2,67.6,29.82,SSE,150,0.0,2.0,98,0.00,,---,0.00,VWS V14.01,2013-07-24 07:27:00,
2013-07-24 02:29:00,68.3,67.7,29.82,SSE,150,1.0,2.0,98,0.00,,---,0.00,VWS V14.01,2013-07-24 07:29:00,
2013-07-24 02:30:00,68.3,67.7,29.83,SSE,150,0.0,2.0,98,0.00,,---,0.00,VWS V14.01,2013-07-24 07:30:00,
2013-07-24 02:31:00,68.3,67.7,29.83,SSE,150,0.0,2.0,98,0.00,,---,0.00,VWS V14.01,2013-07-24 07:31:00,
2013-07-24 02:32:00,68.3,67.7,29.83,SSE,150,0.0,2.0,98,0.00,,---,0.00,VWS V14.01,2013-07-24 07:32:00,
2013-07-24 02:34:00,68.3,67.7,29.83,South,170,4.0,4.0,98,0.00,,---,0.00,VWS V14.01,2013-07-24 07:34:00,
2013-07-24 02:35:00,68.3,67.7,29.83,South,170,1.0,4.0,98,0.00,,---,0.00,VWS V14.01,2013-07-24 07:35:00,
2013-07-24 02:36:00,68.3,67.7,29.83,South,170,2.0,4.0,98,0.00,,---,0.00,VWS V14.01,2013-07-24 07:36:00,
2013-07-24 02:38:00,68.4,67.8,29.82,South,170,1.0,4.0,98,0.00,,---,0.00,VWS V14.01,2013-07-24 07:38:00,
2013-07-24 02:40:00,68.5,67.9,29.82,South,170,0.0,4.0,98,0.00,,---,0.00,VWS V14.01,2013-07-24 07:40:00,
2013-07-24 02:41:00,68.5,67.9,29.82,South,170,1.0,4.0,98,0.00,,---,0.00,VWS V14.01,2013-07-24 07:41:00,
2013-07-24 02:44:00,68.6,68.0,29.82,South,170,0.0,4.0,98,0.00,,---,0.00,VWS V14.01,2013-07-24 07:44:00,
2013-07-24 02:45:00,68.6,68.0,29.82,South,170,0.0,4.0,98,0.00,,---,0.00,VWS V14.01,2013-07-24 07:45:00,
2013-07-24 02:46:00,68.6,68.0,29.82,South,170,0.0,4.0,98,0.00,,---,0.00,VWS V14.01,2013-07-24 07:46:00,
2013-07-24 02:47:00,68.6,68.0,29.82,South,170,0.0,4.0,98,0.00,,---,0.00,VWS V14.01,2013-07-24 07:47:00,
2013-07-24 02:49:00,68.6,68.0,29.82,South,170,0.0,4.0,98,0.00,,---,0.00,VWS V14.01,2013-07-24 07:49:00,
2013-07-24 02:50:00,68.7,68.1,29.82,South,170,0.0,4.0,98,0.00,,---,0.00,VWS V14.01,2013-07-24 07:50:00,
2013-07-24 02:52:00,68.6,68.0,29.82,South,170,0.0,4.0,98,0.00,,---,0.00,VWS V14.01,2013-07-24 07:52:00,
2013-07-24 02:55:00,68.6,68.0,29.82,South,170,0.0,4.0,98,0.00,,---,0.00,VWS V14.01,2013-07-24 07:55:00,
2013-07-24 02:56:00,68.6,68.0,29.82,South,170,0.0,4.0,98,0.00,,---,0.00,VWS V14.01,2013-07-24 07:56:00,
2013-07-24 02:57:00,68.5,67.9,29.82,South,170,1.0,1.0,98,0.00,,---,0.00,VWS V14.01,2013-07-24 07:57:00,
2013-07-24 03:00:00,68.5,67.9,29.82,South,170,1.0,1.0,98,0.00,,---,0.00,VWS V14.01,2013-07-24 08:00:00,
2013-07-24 03:01:00,68.5,67.9,29.82,South,170,1.0,1.0,98,0.00,,---,0.00,VWS V14.01,2013-07-24 08:01:00,
2013-07-24 03:02:00,68.5,67.9,29.82,South,170,1.0,1.0,98,0.00,,---,0.00,VWS V14.01,2013-07-24 08:02:00,
2013-07-24 03:03:00,68.3,67.7,29.81,South,170,0.0,1.0,98,0.00,,---,0.00,VWS V14.01,2013-07-24 08:03:00,
2013-07-24 03:05:00,68.2,67.6,29.81,South,170,0.0,1.0,98,0.00,,---,0.00,VWS V14.01,2013-07-24 08:05:00,
2013-07-24 03:06:00,68.3,67.7,29.81,South,170,0.0,1.0,98,0.00,,---,0.00,VWS V14.01,2013-07-24 08:06:00,
2013-07-24 03:07:00,68.3,67.7,29.81,South,170,0.0,1.0,98,0.00,,---,0.00,VWS V14.01,2013-07-24 08:07:00,
2013-07-24 03:08:00,68.3,67.7,29.81,South,170,0.0,1.0,98,0.00,,---,0.00,VWS V14.01,2013-07-24 08:08:00,
2013-07-24 03:10:00,68.0,67.4,29.81,South,170,0.0,1.0,98,0.00,,---,0.00,VWS V14.01,2013-07-24 08:10:00,
2013-07-24 03:12:00,67.9,67.3,29.81,South,170,0.0,1.0,98,0.00,,---,0.00,VWS V14.01,2013-07-24 08:12:00,
2013-07-24 03:13:00,67.8,67.2,29.81,South,170,0.0,1.0,98,0.00,,---,0.00,VWS V14.01,2013-07-24 08:13:00,
2013-07-24 03:16:00,67.9,67.3,29.81,South,170,0.0,1.0,98,0.00,,---,0.00,VWS V14.01,2013-07-24 08:16:00,
2013-07-24 03:17:00,68.0,67.4,29.81,South,170,0.0,1.0,98,0.00,,---,0.00,VWS V14.01,2013-07-24 08:17:00,
2013-07-24 03:18:00,68.0,67.4,29.81,South,170,0.0,1.0,98,0.00,,---,0.00,VWS V14.01,2013-07-24 08:18:00,
2013-07-24 03:19:00,68.0,67.4,29.81,South,170,1.0,1.0,98,0.00,,---,0.00,VWS V14.01,2013-07-24 08:19:00,
2013-07-24 03:21:00,68.1,67.5,29.81,South,170,0.0,1.0,98,0.01,,---,0.01,VWS V14.01,2013-07-24 08:21:00,
2013-07-24 03:23:00,68.1,67.5,29.81,South,170,0.0,1.0,98,0.01,,---,0.01,VWS V14.01,2013-07-24 08:23:00,
2013-07-24 03:24:00,68.1,67.5,29.81,South,170,0.0,1.0,98,0.01,,---,0.01,VWS V14.01,2013-07-24 08:24:00,
2013-07-24 03:26:00,68.0,67.4,29.81,South,170,0.0,0.0,98,0.01,,---,0.01,VWS V14.01,2013-07-24 08:26:00,
2013-07-24 03:28:00,68.0,67.4,29.81,South,170,0.0,0.0,98,0.01,,---,0.01,VWS V14.01,2013-07-24 08:28:00,
2013-07-24 03:29:00,68.0,67.4,29.81,South,170,0.0,0.0,98,0.01,,---,0.01,VWS V14.01,2013-07-24 08:29:00,
2013-07-24 03:30:00,68.0,67.4,29.81,South,170,0.0,1.0,98,0.01,,---,0.01,VWS V14.01,2013-07-24 08:30:00,
2013-07-24 03:32:00,68.0,67.4,29.81,South,170,0.0,0.0,98,0.01,,---,0.01,VWS V14.01,2013-07-24 08:32:00,
2013-07-24 03:33:00,68.0,67.4,29.81,South,170,0.0,0.0,98,0.01,,---,0.01,VWS V14.01,2013-07-24 08:33:00,
2013-07-24 03:34:00,68.0,67.4,29.81,South,170,0.0,0.0,98,0.01,,---,0.01,VWS V14.01,2013-07-24 08:34:00,
2013-07-24 03:37:00,67.9,67.3,29.81,South,170,0.0,0.0,98,0.01,,---,0.01,VWS V14.01,2013-07-24 08:37:00,
2013-07-24 03:39:00,67.9,67.3,29.81,South,170,0.0,0.0,98,0.01,,---,0.01,VWS V14.01,2013-07-24 08:39:00,
2013-07-24 03:40:00,67.9,67.3,29.81,South,170,0.0,0.0,98,0.01,,---,0.01,VWS V14.01,2013-07-24 08:40:00,
2013-07-24 03:43:00,67.9,67.3,29.81,South,170,0.0,0.0,98,0.01,,---,0.01,VWS V14.01,2013-07-24 08:43:00,
2013-07-24 03:44:00,67.9,67.3,29.81,South,170,0.0,0.0,98,0.01,,---,0.01,VWS V14.01,2013-07-24 08:44:00,
2013-07-24 03:45:00,67.9,67.3,29.81,South,170,0.0,0.0,98,0.01,,---,0.01,VWS V14.01,2013-07-24 08:45:00,
2013-07-24 03:48:00,67.7,67.1,29.81,South,170,0.0,0.0,98,0.01,,---,0.01,VWS V14.01,2013-07-24 08:48:00,
2013-07-24 03:49:00,67.7,67.1,29.81,South,170,0.0,0.0,98,0.01,,---,0.01,VWS V14.01,2013-07-24 08:49:00,
2013-07-24 03:50:00,67.7,67.1,29.81,South,170,0.0,0.0,98,0.01,,---,0.01,VWS V14.01,2013-07-24 08:50:00,
2013-07-24 03:53:00,67.7,67.1,29.81,South,170,0.0,0.0,98,0.01,,---,0.01,VWS V14.01,2013-07-24 08:53:00,
2013-07-24 03:54:00,67.6,67.0,29.81,South,170,1.0,1.0,98,0.01,,---,0.01,VWS V14.01,2013-07-24 08:54:00,
2013-07-24 03:55:00,67.6,67.0,29.81,South,170,1.0,1.0,98,0.01,,---,0.01,VWS V14.01,2013-07-24 08:55:00,
2013-07-24 03:58:00,67.7,67.1,29.81,South,170,0.0,1.0,98,0.01,,---,0.01,VWS V14.01,2013-07-24 08:58:00,
2013-07-24 03:59:00,67.8,67.2,29.81,South,170,0.0,1.0,98,0.01,,---,0.01,VWS V14.01,2013-07-24 08:59:00,
2013-07-24 04:00:00,67.7,67.1,29.81,South,170,0.0,1.0,98,0.01,,---,0.01,VWS V14.01,2013-07-24 09:00:00,
2013-07-24 04:03:00,67.7,67.1,29.81,South,170,0.0,1.0,98,0.01,,---,0.01,VWS V14.01,2013-07-24 09:03:00,
2013-07-24 04:04:00,67.7,67.1,29.81,South,170,0.0,1.0,98,0.01,,---,0.01,VWS V14.01,2013-07-24 09:04:00,
2013-07-24 04:05:00,67.7,67.1,29.81,South,170,0.0,1.0,98,0.01,,---,0.01,VWS V14.01,2013-07-24 09:05:00,
2013-07-24 04:09:00,67.5,66.9,29.81,South,170,0.0,1.0,98,0.01,,---,0.01,VWS V14.01,2013-07-24 09:09:00,
2013-07-24 04:10:00,67.4,66.8,29.81,South,170,0.0,1.0,98,0.01,,---,0.01,VWS V14.01,2013-07-24 09:10:00,
2013-07-24 04:11:00,67.4,66.8,29.81,South,170,0.0,1.0,98,0.01,,---,0.01,VWS V14.01,2013-07-24 09:11:00,
2013-07-24 04:14:00,67.5,66.9,29.81,South,170,1.0,1.0,98,0.01,,---,0.01,VWS V14.01,2013-07-24 09:14:00,
2013-07-24 04:15:00,67.5,66.9,29.81,South,170,1.0,2.0,98,0.01,,---,0.01,VWS V14.01,2013-07-24 09:15:00,
2013-07-24 04:16:00,67.6,67.0,29.81,South,170,0.0,2.0,98,0.01,,---,0.01,VWS V14.01,2013-07-24 09:16:00,
2013-07-24 04:19:00,67.6,67.0,29.81,South,170,0.0,2.0,98,0.01,,---,0.01,VWS V14.01,2013-07-24 09:19:00,
2013-07-24 04:20:00,67.6,67.0,29.81,South,170,0.0,2.0,98,0.01,,---,0.01,VWS V14.01,2013-07-24 09:20:00,
2013-07-24 04:21:00,67.6,67.0,29.81,South,170,0.0,2.0,98,0.01,,---,0.01,VWS V14.01,2013-07-24 09:21:00,
2013-07-24 04:22:00,67.6,67.0,29.81,South,170,0.0,2.0,98,0.01,,---,0.01,VWS V14.01,2013-07-24 09:22:00,
2013-07-24 04:24:00,67.6,67.0,29.81,South,170,0.0,2.0,98,0.01,,---,0.01,VWS V14.01,2013-07-24 09:24:00,
2013-07-24 04:25:00,67.6,67.0,29.81,South,170,0.0,2.0,98,0.01,,---,0.01,VWS V14.01,2013-07-24 09:25:00,
2013-07-24 04:26:00,67.6,67.0,29.81,South,170,0.0,2.0,98,0.01,,---,0.01,VWS V14.01,2013-07-24 09:26:00,
2013-07-24 04:27:00,67.6,67.0,29.81,South,170,0.0,0.0,98,0.00,,---,0.01,VWS V14.01,2013-07-24 09:27:00,
2013-07-24 04:29:00,67.6,67.0,29.81,South,170,0.0,1.0,98,0.00,,---,0.01,VWS V14.01,2013-07-24 09:29:00,
2013-07-24 04:30:00,67.6,67.0,29.81,South,170,0.0,1.0,98,0.00,,---,0.01,VWS V14.01,2013-07-24 09:30:00,
2013-07-24 04:31:00,67.6,67.0,29.81,South,170,0.0,1.0,98,0.00,,---,0.01,VWS V14.01,2013-07-24 09:31:00,
2013-07-24 04:32:00,67.6,67.0,29.81,South,170,0.0,1.0,98,0.00,,---,0.01,VWS V14.01,2013-07-24 09:32:00,
2013-07-24 04:34:00,67.6,67.0,29.81,SSW,202,1.0,2.0,98,0.00,,---,0.01,VWS V14.01,2013-07-24 09:34:00,
2013-07-24 04:35:00,67.6,67.0,29.81,SSW,202,0.0,2.0,98,0.00,,---,0.01,VWS V14.01,2013-07-24 09:35:00,
2013-07-24 04:36:00,67.6,67.0,29.81,SSW,202,2.0,2.0,98,0.00,,---,0.01,VWS V14.01,2013-07-24 09:36:00,
2013-07-24 04:37:00,67.6,67.0,29.81,SSW,202,2.0,2.0,98,0.00,,---,0.01,VWS V14.01,2013-07-24 09:37:00,
2013-07-24 04:38:00,67.6,67.0,29.81,SSW,211,2.0,2.0,98,0.00,,---,0.01,VWS V14.01,2013-07-24 09:38:00,
2013-07-24 04:39:00,67.6,67.0,29.81,SW,222,2.0,3.0,98,0.00,,---,0.01,VWS V14.01,2013-07-24 09:39:00,
2013-07-24 04:41:00,67.7,67.1,29.81,SW,226,2.0,3.0,98,0.00,,---,0.01,VWS V14.01,2013-07-24 09:41:00,
2013-07-24 04:42:00,67.7,67.1,29.81,SW,227,0.0,3.0,98,0.00,,---,0.01,VWS V14.01,2013-07-24 09:42:00,
2013-07-24 04:43:00,67.7,67.1,29.81,SW,227,1.0,3.0,98,0.00,,---,0.01,VWS V14.01,2013-07-24 09:43:00,
2013-07-24 04:44:00,67.7,67.1,29.81,NW,310,1.0,3.0,98,0.00,,---,0.01,VWS V14.01,2013-07-24 09:44:00,
2013-07-24 04:46:00,67.7,67.1,29.81,NW,310,0.0,4.0,98,0.00,,---,0.01,VWS V14.01,2013-07-24 09:46:00,
2013-07-24 04:47:00,67.7,67.1,29.81,NW,310,1.0,4.0,98,0.00,,---,0.01,VWS V14.01,2013-07-24 09:47:00,
2013-07-24 04:48:00,67.7,67.1,29.81,NW,310,1.0,4.0,98,0.00,,---,0.01,VWS V14.01,2013-07-24 09:48:00,
2013-07-24 04:50:00,67.7,67.1,29.81,NW,309,0.0,4.0,98,0.00,,---,0.01,VWS V14.01,2013-07-24 09:50:00,
2013-07-24 04:51:00,67.7,67.1,29.81,NW,310,2.0,4.0,98,0.00,,---,0.01,VWS V14.01,2013-07-24 09:51:00,
2013-07-24 04:52:00,67.7,67.1,29.81,NW,309,3.0,4.0,98,0.00,,---,0.01,VWS V14.01,2013-07-24 09:52:00,
2013-07-24 04:53:00,67.7,67.1,29.81,NW,309,0.0,4.0,98,0.00,,---,0.01,VWS V14.01,2013-07-24 09:53:00,
2013-07-24 04:55:00,67.7,67.1,29.81,NW,309,2.0,4.0,98,0.00,,---,0.01,VWS V14.01,2013-07-24 09:55:00,
2013-07-24 04:56:00,67.7,67.1,29.81,NW,309,2.0,3.0,98,0.00,,---,0.01,VWS V14.01,2013-07-24 09:56:00,
2013-07-24 04:57:00,67.7,67.1,29.81,NW,310,1.0,3.0,98,0.00,,---,0.01,VWS V14.01,2013-07-24 09:57:00,
2013-07-24 04:58:00,67.7,67.1,29.81,NW,310,4.0,5.0,98,0.00,,---,0.01,VWS V14.01,2013-07-24 09:58:00,
2013-07-24 05:00:00,67.7,67.1,29.81,NW,314,3.0,5.0,98,0.00,,---,0.01,VWS V14.01,2013-07-24 10:00:00,
2013-07-24 05:01:00,67.7,67.1,29.81,NW,313,1.0,5.0,98,0.00,,---,0.01,VWS V14.01,2013-07-24 10:01:00,
2013-07-24 05:03:00,67.7,67.1,29.81,NW,313,2.0,5.0,98,0.00,,---,0.01,VWS V14.01,2013-07-24 10:03:00,
2013-07-24 05:04:00,67.7,67.1,29.81,NW,313,1.0,5.0,98,0.00,,---,0.01,VWS V14.01,2013-07-24 10:04:00,
2013-07-24 05:06:00,67.7,67.1,29.81,NW,313,2.0,5.0,98,0.00,,---,0.01,VWS V14.01,2013-07-24 10:06:00,
2013-07-24 05:07:00,67.7,67.1,29.81,NW,313,3.0,5.0,98,0.00,,---,0.01,VWS V14.01,2013-07-24 10:07:00,
2013-07-24 05:08:00,67.7,67.1,29.81,NW,313,3.0,5.0,98,0.00,,---,0.01,VWS V14.01,2013-07-24 10:08:00,
2013-07-24 05:09:00,67.7,67.1,29.81,NW,318,5.0,5.0,98,0.00,,---,0.01,VWS V14.01,2013-07-24 10:09:00,
2013-07-24 05:11:00,67.7,67.1,29.80,NW,317,2.0,6.0,98,0.00,,---,0.01,VWS V14.01,2013-07-24 10:11:00,
2013-07-24 05:12:00,67.7,67.1,29.80,NW,316,3.0,6.0,98,0.00,,---,0.01,VWS V14.01,2013-07-24 10:12:00,
2013-07-24 05:13:00,67.7,67.1,29.80,WNW,287,3.0,6.0,98,0.00,,---,0.01,VWS V14.01,2013-07-24 10:13:00,
2013-07-24 05:14:00,67.7,67.1,29.81,WNW,301,4.0,6.0,98,0.00,,---,0.01,VWS V14.01,2013-07-24 10:14:00,
2013-07-24 05:15:00,67.6,67.0,29.81,NW,309,3.0,7.0,98,0.00,,---,0.01,VWS V14.01,2013-07-24 10:15:00,
2013-07-24 05:16:00,67.6,67.0,29.81,WNW,294,1.0,7.0,98,0.00,,---,0.01,VWS V14.01,2013-07-24 10:16:00,
2013-07-24 05:17:00,67.7,67.1,29.81,WNW,294,3.0,7.0,98,0.00,,---,0.01,VWS V14.01,2013-07-24 10:17:00,
2013-07-24 05:18:00,67.7,67.1,29.81,NW,325,2.0,7.0,98,0.00,,---,0.01,VWS V14.01,2013-07-24 10:18:00,
2013-07-24 05:19:00,67.6,67.0,29.81,NW,316,1.0,7.0,98,0.00,,---,0.01,VWS V14.01,2013-07-24 10:19:00,
2013-07-24 05:20:00,67.7,67.1,29.81,NW,316,2.0,7.0,98,0.00,,---,0.01,VWS V14.01,2013-07-24 10:20:00,
2013-07-24 05:21:00,67.7,67.1,29.81,NW,316,2.0,7.0,98,0.00,,---,0.01,VWS V14.01,2013-07-24 10:21:00,
2013-07-24 05:23:00,67.7,67.1,29.81,NW,316,3.0,7.0,98,0.00,,---,0.01,VWS V14.01,2013-07-24 10:23:00,
2013-07-24 05:24:00,67.7,67.1,29.81,NW,316,0.0,7.0,98,0.00,,---,0.01,VWS V14.01,2013-07-24 10:24:00,
2013-07-24 05:25:00,67.7,67.1,29.81,NW,316,1.0,7.0,98,0.00,,---,0.01,VWS V14.01,2013-07-24 10:25:00,
2013-07-24 05:26:00,67.7,67.1,29.81,NW,316,2.0,2.0,98,0.00,,---,0.01,VWS V14.01,2013-07-24 10:26:00,
2013-07-24 05:28:00,67.7,67.1,29.81,NW,316,1.0,3.0,98,0.00,,---,0.01,VWS V14.01,2013-07-24 10:28:00,
2013-07-24 05:29:00,67.7,67.1,29.81,NW,316,1.0,3.0,98,0.00,,---,0.01,VWS V14.01,2013-07-24 10:29:00,
2013-07-24 05:30:00,67.7,67.1,29.81,NW,316,1.0,3.0,98,0.00,,---,0.01,VWS V14.01,2013-07-24 10:30:00,
2013-07-24 05:33:00,67.7,67.1,29.81,NW,316,1.0,4.0,98,0.00,,---,0.01,VWS V14.01,2013-07-24 10:33:00,
2013-07-24 05:34:00,67.7,67.1,29.81,WNW,297,2.0,4.0,98,0.00,,---,0.01,VWS V14.01,2013-07-24 10:34:00,
2013-07-24 05:35:00,67.7,67.1,29.81,West,281,2.0,5.0,98,0.00,,---,0.01,VWS V14.01,2013-07-24 10:35:00,
2013-07-24 05:38:00,67.7,67.1,29.81,WNW,297,2.0,5.0,98,0.00,,---,0.01,VWS V14.01,2013-07-24 10:38:00,
2013-07-24 05:39:00,67.7,67.1,29.81,WNW,286,2.0,5.0,98,0.00,,---,0.01,VWS V14.01,2013-07-24 10:39:00,
2013-07-24 05:40:00,67.8,67.2,29.81,WNW,288,4.0,5.0,98,0.00,,---,0.01,VWS V14.01,2013-07-24 10:40:00,
2013-07-24 05:43:00,67.8,67.2,29.81,WNW,291,1.0,5.0,98,0.00,,---,0.01,VWS V14.01,2013-07-24 10:43:00,
2013-07-24 05:44:00,67.8,67.2,29.81,WNW,289,4.0,5.0,98,0.00,,---,0.01,VWS V14.01,2013-07-24 10:44:00,
2013-07-24 05:46:00,67.9,67.3,29.81,NW,309,3.0,5.0,98,0.00,,---,0.01,VWS V14.01,2013-07-24 10:46:00,
2013-07-24 05:48:00,68.0,67.4,29.81,West,281,5.0,7.0,98,0.00,,---,0.01,VWS V14.01,2013-07-24 10:48:00,
2013-07-24 05:50:00,68.0,67.4,29.81,WNW,287,3.0,7.0,98,0.00,,---,0.01,VWS V14.01,2013-07-24 10:50:00,
2013-07-24 05:51:00,68.0,67.4,29.81,WNW,299,2.0,7.0,98,0.00,,---,0.01,VWS V14.01,2013-07-24 10:51:00,
2013-07-24 05:53:00,68.1,67.5,29.81,WNW,299,2.0,7.0,98,0.00,,---,0.01,VWS V14.01,2013-07-24 10:53:00,
2013-07-24 05:55:00,68.1,67.5,29.81,WNW,299,1.0,7.0,98,0.00,,---,0.01,VWS V14.01,2013-07-24 10:55:00,
2013-07-24 05:57:00,68.1,67.5,29.81,WNW,299,1.0,1.0,98,0.00,,---,0.01,VWS V14.01,2013-07-24 10:57:00,
2013-07-24 05:58:00,68.1,67.5,29.81,NW,325,3.0,4.0,98,0.00,,---,0.01,VWS V14.01,2013-07-24 10:58:00,
2013-07-24 05:59:00,68.1,67.5,29.81,NW,325,2.0,4.0,98,0.00,,---,0.01,VWS V14.01,2013-07-24 10:59:00,
2013-07-24 06:00:00,68.2,67.6,29.81,WNW,302,2.0,4.0,98,0.00,,---,0.01,VWS V14.01,2013-07-24 11:00:00,
2013-07-24 06:02:00,68.2,67.6,29.81,WNW,302,0.0,4.0,98,0.00,,---,0.01,VWS V14.01,2013-07-24 11:02:00,
2013-07-24 06:04:00,68.3,67.7,29.81,WNW,302,1.0,4.0,98,0.00,,---,0.01,VWS V14.01,2013-07-24 11:04:00,
2013-07-24 06:05:00,68.3,67.7,29.82,WNW,302,0.0,4.0,98,0.00,,---,0.01,VWS V14.01,2013-07-24 11:05:00,
2013-07-24 06:07:00,68.4,67.8,29.82,WNW,302,0.0,4.0,98,0.00,,---,0.01,VWS V14.01,2013-07-24 11:07:00,
2013-07-24 06:09:00,68.5,67.9,29.82,NW,313,2.0,5.0,98,0.00,,---,0.01,VWS V14.01,2013-07-24 11:09:00,
2013-07-24 06:10:00,68.5,67.9,29.82,NW,313,2.0,5.0,98,0.00,,---,0.01,VWS V14.01,2013-07-24 11:10:00,
2013-07-24 06:12:00,68.6,68.0,29.82,NW,312,2.0,5.0,98,0.00,,---,0.01,VWS V14.01,2013-07-24 11:12:00,
2013-07-24 06:14:00,68.7,68.1,29.83,NW,312,2.0,5.0,98,0.00,,---,0.01,VWS V14.01,2013-07-24 11:14:00,
2013-07-24 06:15:00,68.7,68.1,29.83,NW,312,1.0,5.0,98,0.00,,---,0.01,VWS V14.01,2013-07-24 11:15:00,
2013-07-24 06:16:00,68.7,68.1,29.83,NW,312,0.0,5.0,98,0.00,,---,0.01,VWS V14.01,2013-07-24 11:16:00,
2013-07-24 06:18:00,68.7,68.1,29.83,NW,312,2.0,5.0,98,0.00,,---,0.01,VWS V14.01,2013-07-24 11:18:00,
2013-07-24 06:19:00,68.7,68.1,29.83,NW,312,1.0,5.0,98,0.00,,---,0.01,VWS V14.01,2013-07-24 11:19:00,
2013-07-24 06:20:00,68.8,68.2,29.83,NW,312,0.0,5.0,98,0.00,,---,0.01,VWS V14.01,2013-07-24 11:20:00,
2013-07-24 06:21:00,68.8,68.2,29.83,NW,312,2.0,5.0,98,0.00,,---,0.01,VWS V14.01,2013-07-24 11:21:00,
2013-07-24 06:22:00,68.8,68.2,29.83,NW,312,2.0,5.0,98,0.00,,---,0.01,VWS V14.01,2013-07-24 11:22:00,
2013-07-24 06:23:00,68.8,67.9,29.83,NW,312,0.0,5.0,97,0.00,,---,0.01,VWS V14.01,2013-07-24 11:23:00,
2013-07-24 06:24:00,68.8,67.9,29.83,NNW,330,2.0,7.0,97,0.00,,---,0.01,VWS V14.01,2013-07-24 11:24:00,
2013-07-24 06:25:00,68.8,67.9,29.83,NNW,330,3.0,7.0,97,0.00,,---,0.01,VWS V14.01,2013-07-24 11:25:00,
2013-07-24 06:27:00,68.8,67.9,29.83,NW,313,4.0,4.0,97,0.00,,---,0.01,VWS V14.01,2013-07-24 11:27:00,
2013-07-24 06:28:00,68.9,68.0,29.83,NW,325,1.0,6.0,97,0.00,,---,0.01,VWS V14.01,2013-07-24 11:28:00,
2013-07-24 06:30:00,68.9,68.0,29.83,NNW,330,1.0,6.0,97,0.00,,---,0.01,VWS V14.01,2013-07-24 11:30:00,
2013-07-24 06:32:00,68.9,68.0,29.83,NNW,335,4.0,6.0,97,0.00,,---,0.01,VWS V14.01,2013-07-24 11:32:00,
2013-07-24 06:33:00,68.9,68.0,29.83,North,356,3.0,6.0,97,0.00,,---,0.01,VWS V14.01,2013-07-24 11:33:00,
2013-07-24 06:35:00,69.0,68.1,29.84,NW,313,5.0,6.0,97,0.00,,---,0.01,VWS V14.01,2013-07-24 11:35:00,
2013-07-24 06:37:00,69.0,68.1,29.83,NNW,347,3.0,6.0,97,0.00,,---,0.01,VWS V14.01,2013-07-24 11:37:00,
2013-07-24 06:38:00,69.0,68.1,29.84,NNW,335,4.0,6.0,97,0.00,,---,0.01,VWS V14.01,2013-07-24 11:38:00,
2013-07-24 06:40:00,69.0,68.1,29.83,NW,317,4.0,6.0,97,0.00,,---,0.01,VWS V14.01,2013-07-24 11:40:00,
2013-07-24 06:42:00,69.1,68.2,29.84,NW,311,3.0,6.0,97,0.00,,---,0.01,VWS V14.01,2013-07-24 11:42:00,
2013-07-24 06:43:00,69.1,68.2,29.84,NW,325,3.0,6.0,97,0.00,,---,0.01,VWS V14.01,2013-07-24 11:43:00,
2013-07-24 06:45:00,69.1,68.2,29.84,NW,310,4.0,7.0,97,0.00,,---,0.01,VWS V14.01,2013-07-24 11:45:00,
2013-07-24 06:47:00,69.1,68.2,29.84,NW,310,2.0,7.0,97,0.00,,---,0.01,VWS V14.01,2013-07-24 11:47:00,
2013-07-24 06:49:00,69.1,68.2,29.84,NW,310,2.0,7.0,97,0.00,,---,0.01,VWS V14.01,2013-07-24 11:49:00,
2013-07-24 06:50:00,69.1,68.2,29.84,NW,320,4.0,7.0,97,0.00,,---,0.01,VWS V14.01,2013-07-24 11:50:00,
2013-07-24 06:51:00,69.1,68.2,29.84,NW,319,4.0,7.0,97,0.00,,---,0.01,VWS V14.01,2013-07-24 11:51:00,
2013-07-24 06:52:00,69.1,68.2,29.84,North,349,1.0,7.0,97,0.00,,---,0.01,VWS V14.01,2013-07-24 11:52:00,
2013-07-24 06:53:00,69.1,68.2,29.84,NNW,348,2.0,7.0,97,0.00,,---,0.01,VWS V14.01,2013-07-24 11:53:00,
2013-07-24 06:54:00,69.1,68.2,29.84,North,359,2.0,7.0,97,0.00,,---,0.01,VWS V14.01,2013-07-24 11:54:00,
2013-07-24 06:55:00,69.1,68.2,29.84,North,4,2.0,7.0,97,0.00,,---,0.01,VWS V14.01,2013-07-24 11:55:00,
2013-07-24 06:56:00,69.1,68.2,29.84,North,4,2.0,7.0,97,0.00,,---,0.01,VWS V14.01,2013-07-24 11:56:00,
2013-07-24 06:58:00,69.1,68.2,29.84,NW,319,3.0,5.0,97,0.00,,---,0.01,VWS V14.01,2013-07-24 11:58:00,
2013-07-24 06:59:00,69.2,68.3,29.84,NNW,335,3.0,5.0,97,0.00,,---,0.01,VWS V14.01,2013-07-24 11:59:00,
2013-07-24 07:00:00,69.1,68.2,29.84,North,4,2.0,7.0,97,0.00,,---,0.01,VWS V14.01,2013-07-24 12:00:00,
2013-07-24 07:01:00,69.1,68.2,29.84,NNW,330,4.0,5.0,97,0.00,,---,0.01,VWS V14.01,2013-07-24 12:01:00,
2013-07-24 07:03:00,69.1,68.2,29.84,NW,308,1.0,7.0,97,0.00,,---,0.01,VWS V14.01,2013-07-24 12:03:00,
2013-07-24 07:05:00,69.1,68.2,29.84,WNW,289,2.0,7.0,97,0.00,,---,0.01,VWS V14.01,2013-07-24 12:05:00,
2013-07-24 07:06:00,69.1,68.2,29.84,WNW,289,3.0,7.0,97,0.00,,---,0.01,VWS V14.01,2013-07-24 12:06:00,
2013-07-24 07:07:00,69.1,68.2,29.84,WNW,289,3.0,7.0,97,0.00,,---,0.01,VWS V14.01,2013-07-24 12:07:00,
2013-07-24 07:08:00,69.1,68.2,29.84,West,260,2.0,7.0,97,0.00,,---,0.01,VWS V14.01,2013-07-24 12:08:00,
2013-07-24 07:10:00,69.2,68.3,29.84,NNW,339,2.0,7.0,97,0.00,,---,0.01,VWS V14.01,2013-07-24 12:10:00,
2013-07-24 07:12:00,69.2,68.3,29.84,NNW,340,3.0,7.0,97,0.00,,---,0.01,VWS V14.01,2013-07-24 12:12:00,
2013-07-24 07:13:00,69.2,68.3,29.84,NW,319,3.0,7.0,97,0.00,,---,0.01,VWS V14.01,2013-07-24 12:13:00,
2013-07-24 07:15:00,69.3,68.4,29.84,NW,325,2.0,7.0,97,0.00,,---,0.01,VWS V14.01,2013-07-24 12:15:00,
2013-07-24 07:17:00,69.3,68.4,29.84,NNW,335,3.0,7.0,97,0.00,,---,0.01,VWS V14.01,2013-07-24 12:17:00,
2013-07-24 07:18:00,69.3,68.4,29.84,NNW,335,4.0,7.0,97,0.00,,---,0.01,VWS V14.01,2013-07-24 12:18:00,
2013-07-24 07:20:00,69.3,68.4,29.85,NNW,330,3.0,7.0,97,0.00,,---,0.01,VWS V14.01,2013-07-24 12:20:00,
2013-07-24 07:22:00,69.4,68.5,29.85,NNW,330,2.0,7.0,97,0.00,,---,0.01,VWS V14.01,2013-07-24 12:22:00,
2013-07-24 07:23:00,69.4,68.5,29.85,NW,318,3.0,7.0,97,0.00,,---,0.01,VWS V14.01,2013-07-24 12:23:00,
2013-07-24 07:24:00,69.4,68.5,29.85,NNW,348,5.0,8.0,97,0.00,,---,0.01,VWS V14.01,2013-07-24 12:24:00,
2013-07-24 07:26:00,69.5,68.6,29.85,NNW,330,4.0,8.0,97,0.00,,---,0.01,VWS V14.01,2013-07-24 12:26:00,
2013-07-24 07:27:00,69.5,68.6,29.85,NNW,342,2.0,5.0,97,0.00,,---,0.01,VWS V14.01,2013-07-24 12:27:00,
2013-07-24 07:28:00,69.5,68.3,29.85,NNW,330,4.0,5.0,96,0.00,,---,0.01,VWS V14.01,2013-07-24 12:28:00,
2013-07-24 07:29:00,69.5,68.3,29.85,NNW,330,2.0,5.0,96,0.00,,---,0.01,VWS V14.01,2013-07-24 12:29:00,
2013-07-24 07:30:00,69.5,68.6,29.85,NNW,335,3.0,8.0,97,0.00,,---,0.01,VWS V14.01,2013-07-24 12:30:00,
2013-07-24 07:31:00,69.6,68.4,29.85,NNW,343,3.0,5.0,96,0.00,,---,0.01,VWS V14.01,2013-07-24 12:31:00,
2013-07-24 07:33:00,69.6,68.4,29.85,NNW,339,1.0,5.0,96,0.00,,---,0.01,VWS V14.01,2013-07-24 12:33:00,
2013-07-24 07:34:00,69.6,68.4,29.85,North,351,2.0,5.0,96,0.00,,---,0.01,VWS V14.01,2013-07-24 12:34:00,
2013-07-24 07:36:00,69.6,68.4,29.85,NW,316,4.0,5.0,96,0.00,,---,0.01,VWS V14.01,2013-07-24 12:36:00,
2013-07-24 07:38:00,69.7,68.5,29.85,North,355,2.0,5.0,96,0.00,,---,0.01,VWS V14.01,2013-07-24 12:38:00,
2013-07-24 07:39:00,69.7,68.5,29.85,NNW,344,5.0,5.0,96,0.00,,---,0.01,VWS V14.01,2013-07-24 12:39:00,
2013-07-24 07:41:00,69.6,68.4,29.85,NNW,343,4.0,7.0,96,0.00,,---,0.01,VWS V14.01,2013-07-24 12:41:00,
2013-07-24 07:43:00,69.7,68.5,29.86,North,351,4.0,7.0,96,0.00,,---,0.01,VWS V14.01,2013-07-24 12:43:00,
2013-07-24 07:44:00,69.7,68.5,29.86,North,351,1.0,7.0,96,0.00,,---,0.01,VWS V14.01,2013-07-24 12:44:00,
2013-07-24 07:46:00,69.7,68.5,29.86,North,351,2.0,7.0,96,0.00,,---,0.01,VWS V14.01,2013-07-24 12:46:00,
2013-07-24 07:48:00,69.8,68.6,29.86,North,360,3.0,7.0,96,0.00,,---,0.01,VWS V14.01,2013-07-24 12:48:00,
2013-07-24 07:49:00,69.8,68.6,29.86,North,2,3.0,7.0,96,0.00,,---,0.01,VWS V14.01,2013-07-24 12:49:00,
2013-07-24 07:52:00,69.8,68.6,29.85,North,2,3.0,7.0,96,0.00,,---,0.01,VWS V14.01,2013-07-24 12:52:00,
2013-07-24 07:53:00,69.8,68.6,29.86,North,349,4.0,7.0,96,0.00,,---,0.01,VWS V14.01,2013-07-24 12:53:00,
2013-07-24 07:54:00,69.9,68.7,29.86,NNW,335,3.0,7.0,96,0.00,,---,0.01,VWS V14.01,2013-07-24 12:54:00,
2013-07-24 07:57:00,70.0,68.5,29.86,NNE,20,3.0,5.0,95,0.00,,---,0.01,VWS V14.01,2013-07-24 12:57:00,
2013-07-24 07:58:00,70.0,68.5,29.86,North,7,6.0,6.0,95,0.00,,---,0.01,VWS V14.01,2013-07-24 12:58:00,
2013-07-24 07:59:00,70.0,68.5,29.86,NNW,343,4.0,7.0,95,0.00,,---,0.01,VWS V14.01,2013-07-24 12:59:00,
2013-07-24 08:00:00,70.0,68.5,29.86,North,360,2.0,7.0,95,0.00,,---,0.01,VWS V14.01,2013-07-24 13:00:00,
2013-07-24 08:02:00,70.1,68.6,29.86,NW,307,1.0,7.0,95,0.00,,---,0.01,VWS V14.01,2013-07-24 13:02:00,
2013-07-24 08:04:00,70.2,68.7,29.86,North,354,3.0,7.0,95,0.00,,---,0.01,VWS V14.01,2013-07-24 13:04:00,
2013-07-24 08:06:00,70.2,68.7,29.87,North,355,2.0,7.0,95,0.00,,---,0.01,VWS V14.01,2013-07-24 13:06:00,
2013-07-24 08:07:00,70.2,68.4,29.86,North,356,2.0,7.0,94,0.00,,---,0.01,VWS V14.01,2013-07-24 13:07:00,
2013-07-24 08:09:00,70.2,68.4,29.87,NW,310,4.0,7.0,94,0.00,,---,0.01,VWS V14.01,2013-07-24 13:09:00,
2013-07-24 08:11:00,70.2,68.4,29.87,NNW,343,1.0,7.0,94,0.00,,---,0.01,VWS V14.01,2013-07-24 13:11:00,
2013-07-24 08:12:00,70.4,68.9,29.87,North,352,3.0,7.0,95,0.00,,---,0.01,VWS V14.01,2013-07-24 13:12:00,
2013-07-24 08:14:00,70.4,68.6,29.87,North,353,3.0,7.0,94,0.00,,---,0.01,VWS V14.01,2013-07-24 13:14:00,
2013-07-24 08:15:00,70.4,68.6,29.87,North,5,4.0,7.0,94,0.00,,---,0.01,VWS V14.01,2013-07-24 13:15:00,
2013-07-24 08:16:00,70.4,68.6,29.87,North,360,4.0,7.0,94,0.00,,---,0.01,VWS V14.01,2013-07-24 13:16:00,
2013-07-24 08:17:00,70.4,68.6,29.87,NNW,341,6.0,7.0,94,0.00,,---,0.01,VWS V14.01,2013-07-24 13:17:00,
2013-07-24 08:19:00,70.4,68.6,29.87,North,9,2.0,7.0,94,0.00,,---,0.01,VWS V14.01,2013-07-24 13:19:00,
2013-07-24 08:20:00,70.4,68.6,29.87,North,9,3.0,7.0,94,0.00,,---,0.01,VWS V14.01,2013-07-24 13:20:00,
2013-07-24 08:21:00,70.4,68.6,29.87,North,9,2.0,7.0,94,0.00,,---,0.01,VWS V14.01,2013-07-24 13:21:00,
2013-07-24 08:22:00,70.4,68.6,29.87,North,9,2.0,7.0,94,0.00,,---,0.01,VWS V14.01,2013-07-24 13:22:00,
2013-07-24 08:24:00,70.4,68.6,29.88,North,3,3.0,7.0,94,0.00,,---,0.01,VWS V14.01,2013-07-24 13:24:00,
2013-07-24 08:25:00,70.4,68.6,29.88,North,4,2.0,7.0,94,0.00,,---,0.01,VWS V14.01,2013-07-24 13:25:00,
2013-07-24 08:26:00,70.4,68.6,29.88,NW,325,4.0,5.0,94,0.00,,---,0.01,VWS V14.01,2013-07-24 13:26:00,
2013-07-24 08:27:00,70.4,68.6,29.88,North,354,4.0,5.0,94,0.00,,---,0.01,VWS V14.01,2013-07-24 13:27:00,
2013-07-24 08:30:00,70.4,68.6,29.88,NW,318,5.0,7.0,94,0.00,,---,0.01,VWS V14.01,2013-07-24 13:30:00,
2013-07-24 08:31:00,70.4,68.3,29.88,NNW,343,4.0,7.0,93,0.00,,---,0.01,VWS V14.01,2013-07-24 13:31:00,
2013-07-24 08:33:00,70.4,68.6,29.88,NNW,335,6.0,7.0,94,0.00,,---,0.01,VWS V14.01,2013-07-24 13:33:00,
2013-07-24 08:35:00,70.4,68.3,29.88,WNW,301,4.0,7.0,93,0.00,,---,0.01,VWS V14.01,2013-07-24 13:35:00,
2013-07-24 08:36:00,70.5,68.4,29.88,NNW,341,2.0,7.0,93,0.00,,---,0.01,VWS V14.01,2013-07-24 13:36:00,
2013-07-24 08:37:00,70.6,68.8,29.88,NW,309,3.0,7.0,94,0.00,,---,0.01,VWS V14.01,2013-07-24 13:37:00,
2013-07-24 08:39:00,70.7,68.6,29.88,NNE,29,7.0,7.0,93,0.00,,---,0.01,VWS V14.01,2013-07-24 13:39:00,
2013-07-24 08:40:00,70.7,68.6,29.88,North,4,4.0,7.0,93,0.00,,---,0.01,VWS V14.01,2013-07-24 13:40:00,
2013-07-24 08:41:00,70.7,68.6,29.88,NNW,341,3.0,7.0,93,0.00,,---,0.01,VWS V14.01,2013-07-24 13:41:00,
2013-07-24 08:42:00,70.7,68.6,29.88,NNW,335,2.0,7.0,93,0.00,,---,0.01,VWS V14.01,2013-07-24 13:42:00,
2013-07-24 08:45:00,70.7,68.3,29.88,NNW,342,2.0,9.0,92,0.00,,---,0.01,VWS V14.01,2013-07-24 13:45:00,
2013-07-24 08:46:00,70.7,68.3,29.88,NNE,23,5.0,9.0,92,0.00,,---,0.01,VWS V14.01,2013-07-24 13:46:00,
2013-07-24 08:47:00,70.7,68.3,29.88,NNW,339,4.0,9.0,92,0.00,,---,0.01,VWS V14.01,2013-07-24 13:47:00,
2013-07-24 08:50:00,70.9,68.5,29.88,NNW,339,4.0,9.0,92,0.00,,---,0.01,VWS V14.01,2013-07-24 13:50:00,
2013-07-24 08:51:00,70.9,68.5,29.88,North,5,7.0,9.0,92,0.00,,---,0.01,VWS V14.01,2013-07-24 13:51:00,
2013-07-24 08:52:00,70.9,68.5,29.88,North,3,5.0,9.0,92,0.00,,---,0.01,VWS V14.01,2013-07-24 13:52:00,
2013-07-24 08:55:00,71.1,68.7,29.88,NNE,27,5.0,9.0,92,0.00,,---,0.01,VWS V14.01,2013-07-24 13:55:00,
2013-07-24 08:57:00,71.2,68.8,29.88,North,354,7.0,7.0,92,0.00,,---,0.01,VWS V14.01,2013-07-24 13:57:00,
2013-07-24 09:00:00,71.2,68.4,29.88,NNW,341,3.0,7.0,91,0.00,,---,0.01,VWS V14.01,2013-07-24 14:00:00,
2013-07-24 09:01:00,71.2,68.4,29.88,North,354,2.0,7.0,91,0.00,,---,0.01,VWS V14.01,2013-07-24 14:01:00,
2013-07-24 09:02:00,71.3,68.9,29.88,North,355,0.0,7.0,92,0.00,,---,0.01,VWS V14.01,2013-07-24 14:02:00,
2013-07-24 09:05:00,71.2,68.8,29.88,NNW,345,2.0,7.0,92,0.00,,---,0.01,VWS V14.01,2013-07-24 14:05:00,
2013-07-24 09:06:00,71.2,68.8,29.88,North,2,5.0,7.0,92,0.00,,---,0.01,VWS V14.01,2013-07-24 14:06:00,
2013-07-24 09:07:00,71.2,68.8,29.88,North,6,2.0,7.0,92,0.00,,---,0.01,VWS V14.01,2013-07-24 14:07:00,
2013-07-24 09:10:00,71.1,68.7,29.88,NNW,343,5.0,7.0,92,0.00,,---,0.01,VWS V14.01,2013-07-24 14:10:00,
2013-07-24 09:11:00,71.1,68.7,29.88,NNW,330,4.0,7.0,92,0.00,,---,0.01,VWS V14.01,2013-07-24 14:11:00,
2013-07-24 09:12:00,71.1,68.3,29.88,North,4,3.0,7.0,91,0.00,,---,0.01,VWS V14.01,2013-07-24 14:12:00,
2013-07-24 09:13:00,71.1,68.3,29.88,NW,320,5.0,7.0,91,0.00,,---,0.01,VWS V14.01,2013-07-24 14:13:00,
2013-07-24 09:15:00,71.0,68.2,29.88,NW,325,3.0,7.0,91,0.00,,---,0.01,VWS V14.01,2013-07-24 14:15:00,
2013-07-24 09:16:00,71.0,68.2,29.88,NNW,335,3.0,7.0,91,0.00,,---,0.01,VWS V14.01,2013-07-24 14:16:00,
2013-07-24 09:17:00,71.0,68.2,29.88,NW,320,9.0,9.0,91,0.00,,---,0.01,VWS V14.01,2013-07-24 14:17:00,
2013-07-24 09:18:00,70.9,68.2,29.88,NNW,347,4.0,10.0,91,0.00,,---,0.01,VWS V14.01,2013-07-24 14:18:00,
2013-07-24 09:21:00,70.9,68.2,29.88,NNE,28,7.0,10.0,91,0.00,,---,0.01,VWS V14.01,2013-07-24 14:21:00,
2013-07-24 09:22:00,70.9,68.2,29.88,North,354,4.0,10.0,91,0.00,,---,0.01,VWS V14.01,2013-07-24 14:22:00,
2013-07-24 09:23:00,70.9,68.2,29.88,North,8,4.0,10.0,91,0.00,,---,0.01,VWS V14.01,2013-07-24 14:23:00,
2013-07-24 09:26:00,70.9,68.2,29.88,North,355,7.0,10.0,91,0.00,,---,0.01,VWS V14.01,2013-07-24 14:26:00,
2013-07-24 09:27:00,70.9,68.2,29.88,North,350,3.0,5.0,91,0.00,,---,0.01,VWS V14.01,2013-07-24 14:27:00,
2013-07-24 09:28:00,70.9,68.2,29.88,North,7,4.0,5.0,91,0.00,,---,0.01,VWS V14.01,2013-07-24 14:28:00,
2013-07-24 09:30:00,70.9,68.2,29.88,North,6,5.0,10.0,91,0.00,,---,0.01,VWS V14.01,2013-07-24 14:30:00,
2013-07-24 09:32:00,70.9,67.8,29.88,NNW,335,5.0,9.0,90,0.00,,---,0.01,VWS V14.01,2013-07-24 14:32:00,
2013-07-24 09:33:00,70.9,67.8,29.89,NW,318,7.0,10.0,90,0.00,,---,0.01,VWS V14.01,2013-07-24 14:33:00,
2013-07-24 09:37:00,71.0,67.9,29.89,NW,314,6.0,10.0,90,0.00,,---,0.01,VWS V14.01,2013-07-24 14:37:00,
2013-07-24 09:38:00,71.0,67.9,29.89,North,352,4.0,10.0,90,0.00,,---,0.01,VWS V14.01,2013-07-24 14:38:00,
2013-07-24 09:42:00,71.1,68.0,29.89,NNE,19,2.0,10.0,90,0.00,,---,0.01,VWS V14.01,2013-07-24 14:42:00,
2013-07-24 09:43:00,71.3,68.2,29.89,North,356,2.0,10.0,90,0.00,,---,0.01,VWS V14.01,2013-07-24 14:43:00,
2013-07-24 09:47:00,71.6,68.2,29.89,NW,318,3.0,10.0,89,0.00,,---,0.01,VWS V14.01,2013-07-24 14:47:00,
2013-07-24 09:48:00,71.6,68.2,29.89,NNE,31,3.0,10.0,89,0.00,,---,0.01,VWS V14.01,2013-07-24 14:48:00,
2013-07-24 09:52:00,71.9,68.5,29.89,NW,306,5.0,10.0,89,0.00,,---,0.01,VWS V14.01,2013-07-24 14:52:00,
2013-07-24 09:53:00,71.9,68.2,29.89,NW,316,5.0,10.0,88,0.00,,---,0.01,VWS V14.01,2013-07-24 14:53:00,
2013-07-24 09:54:00,71.9,68.2,29.89,NNW,335,3.0,10.0,88,0.00,,---,0.01,VWS V14.01,2013-07-24 14:54:00,
2013-07-24 09:58:00,71.6,67.5,29.89,WNW,287,7.0,8.0,87,0.00,,---,0.01,VWS V14.01,2013-07-24 14:58:00,
2013-07-24 09:59:00,71.6,67.5,29.89,WNW,295,7.0,8.0,87,0.00,,---,0.01,VWS V14.01,2013-07-24 14:59:00,
2013-07-24 10:00:00,71.7,67.6,29.89,WNW,302,5.0,10.0,87,0.00,,---,0.01,VWS V14.01,2013-07-24 15:00:00,
2013-07-24 10:03:00,71.8,67.4,29.89,NNW,335,2.0,8.0,86,0.00,,---,0.01,VWS V14.01,2013-07-24 15:03:00,
2013-07-24 10:04:00,71.9,67.5,29.89,North,3,2.0,8.0,86,0.00,,---,0.01,VWS V14.01,2013-07-24 15:04:00,
2013-07-24 10:08:00,72.2,67.1,29.89,NNW,335,4.0,8.0,84,0.00,,---,0.01,VWS V14.01,2013-07-24 15:08:00,
2013-07-24 10:09:00,72.2,66.8,29.89,North,358,5.0,8.0,83,0.00,,---,0.01,VWS V14.01,2013-07-24 15:09:00,
2013-07-24 10:10:00,72.3,66.8,29.89,NNW,335,3.0,8.0,83,0.00,,---,0.01,VWS V14.01,2013-07-24 15:10:00,
2013-07-24 10:13:00,72.7,66.5,29.89,NW,325,5.0,8.0,81,0.00,,---,0.01,VWS V14.01,2013-07-24 15:13:00,
2013-07-24 10:14:00,72.8,66.6,29.89,NNW,341,3.0,8.0,81,0.00,,---,0.01,VWS V14.01,2013-07-24 15:14:00,
2013-07-24 10:15:00,72.7,66.5,29.89,NE,35,9.0,9.0,81,0.00,,---,0.01,VWS V14.01,2013-07-24 15:15:00,
2013-07-24 10:19:00,73.1,67.3,29.89,NNE,23,4.0,10.0,82,0.00,,---,0.01,VWS V14.01,2013-07-24 15:19:00,
2013-07-24 10:20:00,73.3,67.5,29.89,North,354,4.0,10.0,82,0.00,,---,0.01,VWS V14.01,2013-07-24 15:20:00,
2013-07-24 10:24:00,73.4,67.2,29.89,North,10,6.0,10.0,81,0.00,,---,0.01,VWS V14.01,2013-07-24 15:24:00,
2013-07-24 10:25:00,73.4,66.5,29.89,NNE,25,3.0,10.0,79,0.00,,---,0.01,VWS V14.01,2013-07-24 15:25:00,
2013-07-24 10:29:00,73.5,66.2,29.89,NE,46,5.0,11.0,78,0.00,,---,0.01,VWS V14.01,2013-07-24 15:29:00,
2013-07-24 10:30:00,73.6,67.4,29.89,NNE,29,3.0,10.0,81,0.00,,---,0.01,VWS V14.01,2013-07-24 15:30:00,
2013-07-24 11:00:00,74.4,66.7,29.89,North,6,4.0,11.0,77,0.00,,---,0.01,VWS V14.01,2013-07-24 16:00:00,
2013-07-24 11:30:00,74.8,67.1,29.91,North,0,4.0,11.0,77,0.00,,---,0.01,VWS V14.01,2013-07-24 16:30:00,
2013-07-24 12:00:00,75.0,66.2,29.92,NW,315,4.0,10.0,74,0.00,,---,0.01,VWS V14.01,2013-07-24 17:00:00,
2013-07-24 12:30:00,76.4,64.6,29.91,North,0,5.0,11.0,67,0.00,,---,0.01,VWS V14.01,2013-07-24 17:30:00,
2013-07-24 13:00:00,77.7,67.1,29.91,NW,315,5.0,12.0,70,0.00,,---,0.01,VWS V14.01,2013-07-24 18:00:00,
2013-07-24 13:30:00,78.5,67.1,29.90,North,0,4.0,9.0,68,0.00,,---,0.01,VWS V14.01,2013-07-24 18:30:00,
2013-07-24 14:00:00,79.0,66.7,29.90,NW,315,4.0,10.0,66,0.00,,---,0.01,VWS V14.01,2013-07-24 19:00:00,
2013-07-24 14:30:00,79.9,66.7,29.89,NW,315,4.0,10.0,64,0.00,,---,0.01,VWS V14.01,2013-07-24 19:30:00,
2013-07-24 15:00:00,80.0,66.3,29.89,WNW,292,5.0,12.0,63,0.00,,---,0.01,VWS V14.01,2013-07-24 20:00:00,
2013-07-24 15:30:00,80.3,66.1,29.89,NW,315,5.0,12.0,62,0.00,,---,0.01,VWS V14.01,2013-07-24 20:30:00,
2013-07-24 16:00:00,80.8,63.1,29.89,NW,315,5.0,14.0,55,0.00,,---,0.01,VWS V14.01,2013-07-24 21:00:00,
2013-07-24 16:30:00,81.2,64.0,29.89,NW,315,5.0,11.0,56,0.00,,---,0.01,VWS V14.01,2013-07-24 21:30:00,
2013-07-24 17:00:00,80.7,63.6,29.89,NW,315,5.0,12.0,56,0.00,,---,0.01,VWS V14.01,2013-07-24 22:00:00,
2013-07-24 17:30:00,80.1,62.5,29.89,NW,315,5.0,10.0,55,0.00,,---,0.01,VWS V14.01,2013-07-24 22:30:00,
2013-07-24 18:00:00,79.6,63.0,29.89,NW,315,5.0,10.0,57,0.00,,---,0.01,VWS V14.01,2013-07-24 23:00:00,
2013-07-24 18:30:00,78.7,61.7,29.89,NW,315,5.0,11.0,56,0.00,,---,0.01,VWS V14.01,2013-07-24 23:30:00,
2013-07-24 19:00:00,77.6,61.7,29.89,NW,315,4.0,10.0,58,0.00,,---,0.01,VWS V14.01,2013-07-25 00:00:00,
2013-07-24 19:30:00,75.9,60.6,29.90,NW,315,4.0,10.0,59,0.00,,---,0.01,VWS V14.01,2013-07-25 00:30:00,
2013-07-24 20:00:00,74.0,60.6,29.90,NW,315,3.0,7.0,63,0.00,,---,0.01,VWS V14.01,2013-07-25 01:00:00,
2013-07-24 20:30:00,72.6,59.7,29.91,NW,315,1.0,5.0,64,0.00,,---,0.01,VWS V14.01,2013-07-25 01:30:00,
2013-07-24 21:00:00,69.7,60.3,29.91,WNW,292,1.0,4.0,72,0.00,,---,0.01,VWS V14.01,2013-07-25 02:00:00,
2013-07-24 21:30:00,68.6,60.0,29.93,West,270,0.0,2.0,74,0.00,,---,0.01,VWS V14.01,2013-07-25 02:30:00,
2013-07-24 22:00:00,66.8,60.8,29.94,NW,315,0.0,3.0,81,0.00,,---,0.01,VWS V14.01,2013-07-25 03:00:00,
2013-07-24 22:30:00,67.8,59.6,29.95,West,270,1.0,5.0,75,0.00,,---,0.01,VWS V14.01,2013-07-25 03:30:00,
2013-07-24 23:00:00,65.0,59.7,29.95,WNW,292,0.0,3.0,83,0.00,,---,0.01,VWS V14.01,2013-07-25 04:00:00,
2013-07-24 23:30:00,64.3,59.4,29.96,WNW,292,0.0,2.0,84,0.00,,---,0.01,VWS V14.01,2013-07-25 04:30:00,